createdAt,value
2023-03-16T00:00:48.478Z,4.47
2023-03-16T00:03:21.334Z,4.50
2023-03-16T00:05:52.868Z,4.50
2023-03-16T00:08:20.568Z,4.49
2023-03-16T00:10:47.913Z,4.46
2023-03-16T00:13:19.724Z,4.45
2023-03-16T00:15:54.684Z,4.39
2023-03-16T00:18:23.703Z,4.41
2023-03-16T00:20:55.603Z,4.39
2023-03-16T00:23:29.258Z,4.40
2023-03-16T00:25:58.938Z,4.35
2023-03-16T00:28:27.724Z,4.32
2023-03-16T00:30:59.368Z,4.30
2023-03-16T00:33:27.251Z,4.35
2023-03-16T00:36:02.310Z,4.31
2023-03-16T00:38:35.790Z,4.31
2023-03-16T00:41:08.047Z,4.34
2023-03-16T00:43:45.523Z,4.31
2023-03-16T00:46:14.998Z,4.29
2023-03-16T00:48:44.107Z,4.31
2023-03-16T00:51:13.548Z,4.34
2023-03-16T00:53:43.300Z,4.33
2023-03-16T00:56:12.026Z,4.35
2023-03-16T00:58:40.588Z,4.33
2023-03-16T01:01:14.002Z,4.31
2023-03-16T01:03:41.376Z,4.34
2023-03-16T01:06:13.412Z,4.35
2023-03-16T01:08:41.168Z,4.31
2023-03-16T01:11:16.473Z,4.27
2023-03-16T01:13:43.861Z,4.26
2023-03-16T01:16:11.137Z,4.27
2023-03-16T01:18:38.326Z,4.29
2023-03-16T01:21:07.991Z,4.28
2023-03-16T01:23:36.114Z,4.32
2023-03-16T01:26:03.005Z,4.34
2023-03-16T01:28:31.915Z,4.34
2023-03-16T01:31:05.461Z,4.38
2023-03-16T01:33:33.775Z,4.42
2023-03-16T01:36:03.498Z,4.43
2023-03-16T01:38:30.695Z,4.47
2023-03-16T01:40:57.597Z,4.49
2023-03-16T01:43:27.510Z,4.52
2023-03-16T01:46:06.718Z,4.55
2023-03-16T01:48:38.303Z,4.59
2023-03-16T01:51:14.902Z,4.59
2023-03-16T01:53:45.352Z,4.56
2023-03-16T01:56:16.447Z,4.58
2023-03-16T01:58:44.424Z,4.57
2023-03-16T02:01:13.262Z,4.61
2023-03-16T02:03:41.893Z,4.60
2023-03-16T02:06:15.391Z,4.61
2023-03-16T02:08:43.837Z,4.65
2023-03-16T02:11:11.039Z,4.63
2023-03-16T02:13:37.965Z,4.62
2023-03-16T02:16:07.392Z,4.63
2023-03-16T02:18:35.378Z,4.60
2023-03-16T02:21:35.518Z,4.61
2023-03-16T02:24:03.992Z,4.59
2023-03-16T02:26:49.085Z,4.59
2023-03-16T02:29:57.314Z,4.55
2023-03-16T02:32:27.188Z,4.55
2023-03-16T02:34:55.889Z,4.54
2023-03-16T02:37:23.526Z,4.50
2023-03-16T02:39:50.412Z,4.52
2023-03-16T02:42:19.840Z,4.47
2023-03-16T02:44:52.236Z,4.46
2023-03-16T02:47:43.281Z,4.42
2023-03-16T02:50:12.574Z,4.38
2023-03-16T02:52:41.184Z,4.31
2023-03-16T02:55:09.025Z,4.29
2023-03-16T02:57:35.974Z,4.29
2023-03-16T03:00:07.745Z,4.27
2023-03-16T03:02:34.550Z,4.27
2023-03-16T03:05:02.298Z,4.24
2023-03-16T03:07:32.034Z,4.24
2023-03-16T03:09:58.935Z,4.24
2023-03-16T03:12:25.927Z,4.16
2023-03-16T03:14:52.796Z,4.15
2023-03-16T03:17:19.870Z,4.10
2023-03-16T03:19:46.869Z,4.01
2023-03-16T03:22:18.571Z,4.05
2023-03-16T03:24:45.727Z,4.03
2023-03-16T03:27:12.584Z,4.02
2023-03-16T03:29:39.436Z,3.98
2023-03-16T03:32:07.232Z,3.98
2023-03-16T03:34:34.179Z,3.94
2023-03-16T03:37:01.361Z,3.93
2023-03-16T03:39:28.262Z,3.92
2023-03-16T03:41:55.446Z,3.92
2023-03-16T03:44:23.424Z,3.90
2023-03-16T03:46:51.681Z,3.87
2023-03-16T03:49:18.619Z,3.88
2023-03-16T03:51:45.500Z,3.85
2023-03-16T03:54:12.355Z,3.83
2023-03-16T03:56:39.179Z,3.79
2023-03-16T03:59:06.159Z,3.75
2023-03-16T04:01:33.095Z,3.72
2023-03-16T04:03:59.993Z,3.70
2023-03-16T04:06:26.824Z,3.67
2023-03-16T04:08:54.487Z,3.65
2023-03-16T04:11:21.690Z,3.64
2023-03-16T04:13:51.510Z,3.62
2023-03-16T04:16:18.431Z,3.59
2023-03-16T04:18:46.292Z,3.59
2023-03-16T04:21:17.331Z,3.55
2023-03-16T04:23:44.537Z,3.55
2023-03-16T04:26:11.937Z,3.54
2023-03-16T04:28:39.088Z,3.51
2023-03-16T04:31:08.631Z,3.49
2023-03-16T04:33:37.289Z,3.44
2023-03-16T04:36:05.492Z,3.43
2023-03-16T04:38:33.843Z,3.34
2023-03-16T04:41:02.348Z,3.34
2023-03-16T04:43:29.764Z,3.27
2023-03-16T04:45:56.672Z,3.26
2023-03-16T04:48:24.064Z,3.23
2023-03-16T04:50:51.505Z,3.21
2023-03-16T04:53:18.352Z,3.21
2023-03-16T04:55:46.287Z,3.17
2023-03-16T04:58:13.943Z,3.17
2023-03-16T05:00:41.664Z,3.14
2023-03-16T05:03:12.899Z,3.11
2023-03-16T05:05:40.777Z,3.07
2023-03-16T05:08:08.454Z,3.04
2023-03-16T05:10:35.352Z,3.00
2023-03-16T05:13:02.226Z,2.97
2023-03-16T05:15:29.125Z,2.94
2023-03-16T05:17:56.158Z,2.96
2023-03-16T05:20:24.328Z,2.95
2023-03-16T05:22:51.922Z,2.96
2023-03-16T05:25:19.887Z,2.92
2023-03-16T05:27:51.767Z,2.87
2023-03-16T05:30:19.171Z,2.89
2023-03-16T05:32:46.782Z,2.88
2023-03-16T05:35:14.325Z,2.87
2023-03-16T05:37:41.893Z,2.85
2023-03-16T05:40:17.426Z,2.87
2023-03-16T05:42:49.074Z,2.87
2023-03-16T05:45:17.325Z,2.84
2023-03-16T05:47:44.652Z,2.82
2023-03-16T05:50:13.629Z,2.81
2023-03-16T05:52:41.375Z,2.81
2023-03-16T05:55:09.672Z,2.81
2023-03-16T05:57:36.722Z,2.82
2023-03-16T06:00:14.702Z,2.82
2023-03-16T06:02:43.418Z,2.78
2023-03-16T06:05:11.314Z,2.81
2023-03-16T06:07:38.409Z,2.83
2023-03-16T06:10:06.708Z,2.83
2023-03-16T06:12:34.647Z,2.80
2023-03-16T06:15:02.603Z,2.84
2023-03-16T06:17:29.695Z,2.84
2023-03-16T06:19:56.557Z,2.86
2023-03-16T06:22:24.085Z,2.85
2023-03-16T06:24:52.218Z,2.87
2023-03-16T06:27:20.503Z,2.87
2023-03-16T06:29:48.033Z,2.89
2023-03-16T06:32:15.063Z,2.90
2023-03-16T06:34:41.967Z,2.92
2023-03-16T06:37:09.249Z,2.92
2023-03-16T06:39:36.208Z,2.94
2023-03-16T06:42:04.690Z,2.97
2023-03-16T06:44:31.874Z,3.02
2023-03-16T06:46:59.278Z,3.06
2023-03-16T06:49:26.191Z,3.11
2023-03-16T06:51:53.121Z,3.11
2023-03-16T06:54:19.954Z,3.16
2023-03-16T06:56:46.777Z,3.21
2023-03-16T06:59:13.903Z,3.23
2023-03-16T07:01:40.756Z,3.29
2023-03-16T07:04:08.380Z,3.34
2023-03-16T07:06:35.259Z,3.38
2023-03-16T07:09:02.268Z,3.42
2023-03-16T07:11:29.161Z,3.48
2023-03-16T07:13:56.044Z,3.50
2023-03-16T07:16:22.906Z,3.56
2023-03-16T07:18:49.822Z,3.62
2023-03-16T07:21:16.716Z,3.71
2023-03-16T07:23:44.869Z,3.77
2023-03-16T07:26:12.374Z,3.81
2023-03-16T07:28:39.765Z,3.87
2023-03-16T07:31:07.935Z,3.94
2023-03-16T07:33:35.843Z,3.98
2023-03-16T07:36:04.521Z,4.03
2023-03-16T07:38:34.541Z,4.09
2023-03-16T07:41:01.349Z,4.13
2023-03-16T07:43:29.432Z,4.18
2023-03-16T07:45:56.443Z,4.22
2023-03-16T07:48:23.341Z,4.26
2023-03-16T07:50:50.338Z,4.29
2023-03-16T07:53:17.941Z,4.32
2023-03-16T07:55:45.117Z,4.38
2023-03-16T07:58:21.743Z,4.41
2023-03-16T08:00:48.616Z,4.44
2023-03-16T08:03:15.578Z,4.49
2023-03-16T08:05:42.484Z,4.51
2023-03-16T08:08:12.058Z,4.53
2023-03-16T08:10:39.042Z,4.56
2023-03-16T08:13:05.979Z,4.60
2023-03-16T08:15:35.784Z,4.64
2023-03-16T08:18:02.700Z,4.70
2023-03-16T08:20:30.455Z,4.75
2023-03-16T08:22:57.588Z,4.80
2023-03-16T08:25:24.850Z,4.85
2023-03-16T08:27:52.596Z,4.89
2023-03-16T08:30:19.785Z,4.93
2023-03-16T08:32:46.695Z,5.00
2023-03-16T08:35:16.758Z,5.05
2023-03-16T08:37:44.176Z,5.10
2023-03-16T08:40:14.227Z,5.15
2023-03-16T08:42:41.660Z,5.21
2023-03-16T08:45:11.719Z,5.28
2023-03-16T08:47:46.310Z,5.33
2023-03-16T08:50:13.843Z,5.40
2023-03-16T08:52:41.057Z,5.49
2023-03-16T08:55:10.989Z,5.59
2023-03-16T08:57:40.651Z,5.70
2023-03-16T09:00:14.567Z,5.80
2023-03-16T09:02:42.706Z,5.90
2023-03-16T09:05:15.021Z,6.00
2023-03-16T09:07:42.579Z,6.08
2023-03-16T09:10:15.289Z,6.13
2023-03-16T09:12:43.419Z,6.18
2023-03-16T09:15:13.857Z,6.22
2023-03-16T09:17:41.829Z,6.24
2023-03-16T09:20:21.924Z,6.29
2023-03-16T09:22:53.732Z,6.31
2023-03-16T09:25:20.624Z,6.33
2023-03-16T09:27:47.562Z,6.31
2023-03-16T09:30:18.248Z,6.33
2023-03-16T09:32:48.862Z,6.35
2023-03-16T09:35:16.147Z,6.40
2023-03-16T09:38:04.824Z,6.43
2023-03-16T09:40:30.944Z,6.47
2023-03-16T09:43:09.769Z,6.52
2023-03-16T09:46:13.959Z,6.57
2023-03-16T09:48:41.320Z,6.61
2023-03-16T09:51:31.903Z,6.66
2023-03-16T09:54:03.172Z,6.71
2023-03-16T09:56:37.039Z,6.74
2023-03-16T09:59:13.627Z,6.77
2023-03-16T10:01:55.033Z,6.82
2023-03-16T10:04:38.344Z,6.86
2023-03-16T10:07:21.237Z,6.89
2023-03-16T10:10:15.298Z,6.93
2023-03-16T10:12:47.680Z,6.97
2023-03-16T10:15:19.544Z,7.01
2023-03-16T10:17:59.341Z,7.08
2023-03-16T10:20:33.404Z,7.14
2023-03-16T10:23:06.536Z,7.17
2023-03-16T10:25:52.783Z,7.23
2023-03-16T10:28:26.287Z,7.28
2023-03-16T10:30:55.372Z,7.33
2023-03-16T10:33:27.907Z,7.37
2023-03-16T10:36:03.945Z,7.41
2023-03-16T10:38:30.973Z,7.46
2023-03-16T10:42:02.899Z,7.57
2023-03-16T10:44:33.792Z,7.56
2023-03-16T10:47:06.546Z,7.62
2023-03-16T10:49:42.316Z,7.69
2023-03-16T10:52:13.612Z,7.72
2023-03-16T10:54:41.226Z,7.77
2023-03-16T10:57:20.916Z,7.83
2023-03-16T10:59:49.965Z,7.87
2023-03-16T11:02:30.464Z,7.90
2023-03-16T11:04:57.789Z,7.94
2023-03-16T11:07:25.639Z,7.99
2023-03-16T11:09:54.975Z,8.04
2023-03-16T11:12:30.313Z,8.10
2023-03-16T11:15:25.218Z,8.12
2023-03-16T11:17:55.813Z,8.16
2023-03-16T11:20:28.663Z,8.20
2023-03-16T11:22:56.353Z,8.25
2023-03-16T11:25:45.610Z,8.30
2023-03-16T11:28:24.980Z,8.36
2023-03-16T11:31:04.305Z,8.40
2023-03-16T11:33:32.111Z,8.45
2023-03-16T11:36:17.349Z,8.48
2023-03-16T11:39:22.352Z,8.49
2023-03-16T11:42:11.959Z,8.57
2023-03-16T11:45:12.840Z,8.64
2023-03-16T11:47:48.786Z,8.67
2023-03-16T11:50:44.842Z,8.72
2023-03-16T11:53:17.767Z,8.77
2023-03-16T11:55:56.729Z,8.81
2023-03-16T11:58:29.385Z,8.83
2023-03-16T12:01:14.416Z,8.89
2023-03-16T12:04:10.299Z,8.96
2023-03-16T12:06:53.170Z,9.01
2023-03-16T12:09:23.114Z,9.06
2023-03-16T12:11:56.401Z,9.09
2023-03-16T12:14:33.946Z,9.12
2023-03-16T12:17:08.478Z,9.18
2023-03-16T12:19:45.762Z,9.20
2023-03-16T12:22:18.629Z,9.26
2023-03-16T12:24:49.362Z,9.27
2023-03-16T12:27:25.545Z,9.27
2023-03-16T12:30:20.655Z,9.29
2023-03-16T12:33:07.901Z,9.33
2023-03-16T12:35:49.719Z,9.40
2023-03-16T12:38:20.616Z,9.41
2023-03-16T12:41:10.305Z,9.42
2023-03-16T12:43:51.135Z,9.44
2023-03-16T12:46:53.637Z,9.47
2023-03-16T12:49:21.236Z,9.52
2023-03-16T12:51:59.834Z,9.56
2023-03-16T12:54:27.663Z,9.58
2023-03-16T12:57:02.765Z,9.61
2023-03-16T12:59:43.097Z,9.64
2023-03-16T13:02:26.464Z,9.66
2023-03-16T13:05:15.840Z,9.69
2023-03-16T13:07:51.465Z,9.73
2023-03-16T13:10:21.120Z,9.76
2023-03-16T13:12:48.260Z,9.80
2023-03-16T13:15:29.626Z,9.80
2023-03-16T13:18:21.203Z,9.82
2023-03-16T13:20:55.803Z,9.84
2023-03-16T13:23:46.555Z,9.84
2023-03-16T13:26:36.379Z,9.87
2023-03-16T13:29:20.885Z,9.88
2023-03-16T13:31:47.841Z,9.93
2023-03-16T13:34:21.797Z,9.93
2023-03-16T13:36:53.276Z,9.96
2023-03-16T13:39:27.315Z,9.99
2023-03-16T13:41:59.711Z,10.00
2023-03-16T13:44:28.139Z,10.00
2023-03-16T13:46:55.177Z,9.99
2023-03-16T13:49:22.026Z,10.00
2023-03-16T13:51:49.571Z,10.03
2023-03-16T13:54:23.973Z,10.06
2023-03-16T13:56:59.290Z,10.09
2023-03-16T13:59:26.465Z,10.09
2023-03-16T14:01:58.576Z,10.09
2023-03-16T14:04:29.331Z,10.09
2023-03-16T14:07:00.278Z,10.10
2023-03-16T14:09:31.819Z,10.11
2023-03-16T14:11:58.899Z,10.11
2023-03-16T14:14:30.081Z,10.11
2023-03-16T14:17:11.042Z,10.13
2023-03-16T14:20:00.048Z,10.13
2023-03-16T14:22:34.818Z,10.15
2023-03-16T14:25:04.744Z,10.16
2023-03-16T14:27:38.988Z,10.16
2023-03-16T14:30:20.235Z,10.15
2023-03-16T14:32:56.760Z,10.18
2023-03-16T14:35:28.424Z,10.19
2023-03-16T14:37:56.680Z,10.19
2023-03-16T14:40:32.503Z,10.18
2023-03-16T14:43:03.776Z,10.19
2023-03-16T14:45:35.932Z,10.19
2023-03-16T14:48:06.860Z,10.18
2023-03-16T14:50:34.843Z,10.18
2023-03-16T14:53:04.347Z,10.19
2023-03-16T14:55:31.670Z,10.20
2023-03-16T14:57:58.952Z,10.20
2023-03-16T15:00:26.685Z,10.22
2023-03-16T15:03:03.313Z,10.21
2023-03-16T15:05:37.506Z,10.22
2023-03-16T15:08:06.958Z,10.22
2023-03-16T15:10:36.284Z,10.23
2023-03-16T15:13:13.296Z,10.24
2023-03-16T15:15:42.727Z,10.24
2023-03-16T15:18:09.885Z,10.25
2023-03-16T15:20:42.501Z,10.24
2023-03-16T15:23:17.490Z,10.24
2023-03-16T15:25:45.871Z,10.24
2023-03-16T15:28:17.515Z,10.24
2023-03-16T15:31:04.644Z,10.23
2023-03-16T15:33:31.951Z,10.24
2023-03-16T15:36:02.070Z,10.25
2023-03-16T15:38:33.481Z,10.26
2023-03-16T15:41:00.576Z,10.26
2023-03-16T15:43:29.895Z,10.28
2023-03-16T15:45:58.947Z,10.29
2023-03-16T15:48:26.426Z,10.31
2023-03-16T15:51:01.317Z,10.30
2023-03-16T15:53:31.083Z,10.27
2023-03-16T15:56:04.307Z,10.28
2023-03-16T15:58:34.296Z,10.25
2023-03-16T16:01:02.978Z,10.27
2023-03-16T16:03:30.052Z,10.29
2023-03-16T16:05:57.663Z,10.31
2023-03-16T16:08:24.421Z,10.31
2023-03-16T16:10:53.282Z,10.30
2023-03-16T16:13:43.075Z,10.28
2023-03-16T16:16:13.820Z,10.25
2023-03-16T16:18:42.053Z,10.24
2023-03-16T16:21:16.546Z,10.21
2023-03-16T16:23:43.695Z,10.16
2023-03-16T16:26:46.908Z,10.15
2023-03-16T16:29:27.223Z,10.11
2023-03-16T16:31:54.431Z,10.06
2023-03-16T16:34:24.773Z,10.03
2023-03-16T16:36:52.516Z,9.97
2023-03-16T16:39:19.440Z,9.96
2023-03-16T16:41:48.645Z,9.93
2023-03-16T16:44:20.319Z,9.91
2023-03-16T16:46:49.079Z,9.85
2023-03-16T16:49:20.480Z,9.81
2023-03-16T16:51:47.612Z,9.79
2023-03-16T16:54:18.182Z,9.73
2023-03-16T16:56:46.572Z,9.65
2023-03-16T16:59:33.167Z,9.64
2023-03-16T17:02:18.354Z,9.59
2023-03-16T17:04:45.302Z,9.56
2023-03-16T17:07:13.198Z,9.49
2023-03-16T17:09:40.149Z,9.45
2023-03-16T17:12:17.470Z,9.39
2023-03-16T17:14:44.707Z,9.36
2023-03-16T17:17:19.358Z,9.30
2023-03-16T17:19:47.101Z,9.23
2023-03-16T17:22:26.127Z,9.18
2023-03-16T17:24:54.151Z,9.14
2023-03-16T17:27:33.503Z,9.09
2023-03-16T17:30:01.304Z,9.02
2023-03-16T17:32:29.773Z,8.93
2023-03-16T17:34:56.897Z,8.85
2023-03-16T17:37:24.272Z,8.81
2023-03-16T17:39:52.896Z,8.73
2023-03-16T17:42:23.276Z,8.66
2023-03-16T17:44:52.996Z,8.57
2023-03-16T17:47:28.526Z,8.53
2023-03-16T17:49:57.362Z,8.47
2023-03-16T17:52:30.382Z,8.39
2023-03-16T17:54:58.196Z,8.34
2023-03-16T17:57:34.637Z,8.26
2023-03-16T18:00:05.984Z,8.18
2023-03-16T18:02:45.572Z,8.09
2023-03-16T18:05:27.156Z,8.05
2023-03-16T18:07:55.981Z,7.98
2023-03-16T18:10:30.039Z,7.91
2023-03-16T18:13:05.036Z,7.85
2023-03-16T18:15:37.117Z,7.81
2023-03-16T18:18:10.739Z,7.74
2023-03-16T18:20:38.335Z,7.69
2023-03-16T18:23:20.981Z,7.65
2023-03-16T18:25:52.517Z,7.56
2023-03-16T18:28:21.224Z,7.53
2023-03-16T18:30:55.026Z,7.47
2023-03-16T18:33:30.306Z,7.45
2023-03-16T18:36:01.695Z,7.36
2023-03-16T18:38:36.057Z,7.34
2023-03-16T18:41:16.846Z,7.30
2023-03-16T18:43:45.403Z,7.24
2023-03-16T18:46:29.713Z,7.18
2023-03-16T18:49:00.736Z,7.14
2023-03-16T18:51:31.383Z,7.08
2023-03-16T18:53:59.294Z,7.02
2023-03-16T18:56:30.332Z,6.96
2023-03-16T18:58:58.420Z,6.92
2023-03-16T19:01:32.411Z,6.91
2023-03-16T19:04:04.002Z,6.84
2023-03-16T19:06:38.394Z,6.82
2023-03-16T19:09:15.047Z,6.76
2023-03-16T19:11:45.953Z,6.73
2023-03-16T19:14:19.214Z,6.65
2023-03-16T19:16:48.107Z,6.59
2023-03-16T19:19:17.037Z,6.55
2023-03-16T19:21:46.630Z,6.47
2023-03-16T19:24:27.604Z,6.42
2023-03-16T19:26:58.952Z,6.38
2023-03-16T19:29:34.726Z,6.38
2023-03-16T19:32:04.773Z,6.30
2023-03-16T19:34:34.627Z,6.24
2023-03-16T19:37:02.241Z,6.16
2023-03-16T19:39:30.300Z,6.10
2023-03-16T19:42:02.004Z,6.03
2023-03-16T19:44:30.042Z,5.94
2023-03-16T19:46:59.889Z,5.89
2023-03-16T19:49:28.606Z,5.83
2023-03-16T19:51:57.614Z,5.79
2023-03-16T19:54:30.713Z,5.80
2023-03-16T19:57:02.041Z,5.80
2023-03-16T19:59:34.422Z,5.79
2023-03-16T20:02:02.934Z,5.71
2023-03-16T20:04:43.954Z,5.60
2023-03-16T20:07:18.467Z,5.62
2023-03-16T20:09:46.646Z,5.55
2023-03-16T20:12:43.970Z,5.51
2023-03-16T20:15:21.446Z,5.42
2023-03-16T20:17:50.336Z,5.43
2023-03-16T20:20:30.906Z,5.39
2023-03-16T20:23:00.242Z,5.30
2023-03-16T20:25:35.649Z,5.30
2023-03-16T20:28:05.742Z,5.25
2023-03-16T20:30:34.375Z,5.24
2023-03-16T20:33:02.846Z,5.17
2023-03-16T20:35:32.714Z,5.20
2023-03-16T20:38:00.328Z,5.14
2023-03-16T20:40:29.361Z,5.12
2023-03-16T20:42:57.224Z,5.05
2023-03-16T20:45:28.247Z,5.01
2023-03-16T20:47:55.957Z,4.97
2023-03-16T20:50:24.932Z,4.92
2023-03-16T20:52:54.248Z,4.91
2023-03-16T20:55:25.394Z,4.85
2023-03-16T20:57:54.698Z,4.81
2023-03-16T21:00:22.241Z,4.79
2023-03-16T21:02:54.492Z,4.75
2023-03-16T21:05:23.424Z,4.72
2023-03-16T21:07:51.757Z,4.71
2023-03-16T21:10:23.641Z,4.64
2023-03-16T21:12:57.602Z,4.57
2023-03-16T21:15:28.065Z,4.52
2023-03-16T21:18:08.455Z,4.44
2023-03-16T21:20:36.753Z,4.47
2023-03-16T21:23:04.148Z,4.45
2023-03-16T21:25:40.687Z,4.41
2023-03-16T21:28:07.541Z,4.39
2023-03-16T21:30:40.359Z,4.36
2023-03-16T21:33:32.575Z,4.35
2023-03-16T21:36:01.032Z,4.31
2023-03-16T21:38:31.458Z,4.30
2023-03-16T21:40:59.714Z,4.27
2023-03-16T21:43:27.531Z,4.29
2023-03-16T21:45:55.267Z,4.26
2023-03-16T21:48:24.901Z,4.20
2023-03-16T21:50:53.968Z,4.20
2023-03-16T21:53:22.843Z,4.15
2023-03-16T21:55:51.761Z,4.11
2023-03-16T21:58:19.520Z,4.08
2023-03-16T22:00:47.521Z,4.02
2023-03-16T22:03:32.944Z,3.98
2023-03-16T22:06:05.336Z,3.96
2023-03-16T22:08:34.399Z,3.94
2023-03-16T22:11:04.677Z,3.90
2023-03-16T22:13:33.482Z,3.87
2023-03-16T22:16:00.340Z,3.82
2023-03-16T22:18:32.965Z,3.80
2023-03-16T22:21:02.164Z,3.75
2023-03-16T22:23:32.260Z,3.75
2023-03-16T22:25:59.235Z,3.65
2023-03-16T22:28:26.475Z,3.69
2023-03-16T22:30:54.384Z,3.66
2023-03-16T22:33:27.131Z,3.64
2023-03-16T22:35:55.237Z,3.65
2023-03-16T22:38:22.502Z,3.63
2023-03-16T22:40:49.309Z,3.60
2023-03-16T22:43:18.818Z,3.58
2023-03-16T22:45:45.746Z,3.57
2023-03-16T22:48:22.586Z,3.49
2023-03-16T22:50:50.243Z,3.47
2023-03-16T22:53:26.941Z,3.40
2023-03-16T22:55:55.729Z,3.42
2023-03-16T22:58:43.431Z,3.38
2023-03-16T23:01:19.403Z,3.36
2023-03-16T23:03:48.388Z,3.33
2023-03-16T23:06:24.128Z,3.28
2023-03-16T23:08:51.817Z,3.28
2023-03-16T23:11:28.454Z,3.25
2023-03-16T23:13:55.835Z,3.26
2023-03-16T23:16:43.345Z,3.24
2023-03-16T23:19:24.553Z,3.18
2023-03-16T23:21:53.218Z,3.17
2023-03-16T23:24:20.687Z,3.19
2023-03-16T23:26:48.777Z,3.20
2023-03-16T23:29:15.581Z,3.13
2023-03-16T23:31:42.578Z,3.17
2023-03-16T23:34:13.979Z,3.10
2023-03-16T23:36:41.042Z,3.11
2023-03-16T23:39:08.890Z,3.07
2023-03-16T23:41:37.245Z,3.08
2023-03-16T23:44:05.974Z,3.04
2023-03-16T23:46:33.796Z,3.03
2023-03-16T23:49:04.467Z,3.01
2023-03-16T23:51:36.616Z,3.00
2023-03-16T23:54:15.848Z,2.94
2023-03-16T23:56:42.611Z,2.95
2023-03-16T23:59:09.395Z,2.96
